Time;durP1;ratioP1;P1;durP2;ratioP2;P2;SDS_P1;SDS_P2;PMS_P1;PMS_P2;Temp;Humidity;BMP_temperature;BMP_pressure;BME280_temperature;BME280_humidity;BME280_pressure;Samples;Min_cycle;Max_cycle;Signal;HPM_P1;HPM_P2
2022/10/01 00:01:05;;;;;;;7.95;5.13;;;;;;;16.54;62.24;95315.88;4954526;28;20192;-72
2022/10/01 00:03:32;;;;;;;8.93;5.38;;;;;;;16.75;61.32;95304.56;4972177;28;20189;-74
2022/10/01 00:06:10;;;;;;;6.80;5.43;;;;;;;16.63;61.20;95338.72;4975679;28;20299;-74
2022/10/01 00:08:37;;;;;;;5.97;4.30;;;;;;;16.72;59.99;95310.25;4972510;28;20242;-73
2022/10/01 00:11:12;;;;;;;8.13;4.70;;;;;;;16.79;59.09;95305.88;4965327;28;20184;-74
2022/10/01 00:13:39;;;;;;;6.72;5.18;;;;;;;16.78;59.86;95319.34;4955496;28;20271;-74
2022/10/01 00:16:07;;;;;;;6.90;4.70;;;;;;;16.96;58.98;95301.22;4979163;28;20303;-74
2022/10/01 00:18:38;;;;;;;7.95;5.00;;;;;;;16.70;59.93;95320.22;4957323;28;20212;-74
2022/10/01 00:21:09;;;;;;;5.32;4.63;;;;;;;16.86;59.62;95313.94;4964903;28;20228;-74
2022/10/01 00:23:35;;;;;;;6.70;5.15;;;;;;;16.73;59.83;95296.78;4958759;28;20198;-74
2022/10/01 00:26:28;;;;;;;7.00;5.55;;;;;;;16.58;60.68;95329.66;4965421;28;20194;-74
2022/10/01 00:29:03;;;;;;;6.85;4.93;;;;;;;16.74;60.04;95306.41;4964763;28;20230;-74
2022/10/01 00:31:29;;;;;;;9.82;5.45;;;;;;;16.62;60.08;95293.75;4957345;28;20275;-73
2022/10/01 00:33:57;;;;;;;5.70;5.05;;;;;;;16.63;60.46;95298.06;4980101;28;20192;-73
2022/10/01 00:36:23;;;;;;;5.32;4.80;;;;;;;16.69;60.54;95318.56;4966278;28;20251;-73
2022/10/01 00:38:49;;;;;;;6.00;5.18;;;;;;;16.65;60.60;95307.50;4959739;28;20192;-72
2022/10/01 00:41:15;;;;;;;6.35;5.25;;;;;;;16.60;60.93;95296.59;4967165;28;20203;-73
2022/10/01 00:43:47;;;;;;;9.00;5.28;;;;;;;16.39;61.76;95318.53;4957459;28;20188;-72
2022/10/01 00:46:24;;;;;;;8.77;5.65;;;;;;;16.60;61.58;95315.19;4959374;28;20228;-74
2022/10/01 00:49:05;;;;;;;8.05;5.22;;;;;;;16.50;61.65;95296.84;4977067;28;20251;-74
2022/10/01 00:51:38;;;;;;;8.20;5.85;;;;;;;16.40;62.30;95308.75;4969187;28;20196;-75
2022/10/01 00:54:42;;;;;;;7.28;5.53;;;;;;;16.41;62.36;95297.09;4965372;28;20187;-72
2022/10/01 00:57:08;;;;;;;6.90;5.45;;;;;;;16.40;62.60;95319.34;4960511;28;20188;-72
2022/10/01 00:59:35;;;;;;;9.27;5.55;;;;;;;16.45;62.53;95322.31;4959018;28;20216;-73
2022/10/01 01:02:01;;;;;;;8.50;5.68;;;;;;;16.35;62.77;95319.06;4963549;28;20185;-72
2022/10/01 01:04:27;;;;;;;10.00;6.40;;;;;;;16.19;63.32;95304.94;4972712;28;20224;-72
2022/10/01 01:06:56;;;;;;;9.10;6.13;;;;;;;16.16;64.05;95315.09;4968835;28;20409;-73
2022/10/01 01:09:31;;;;;;;10.38;6.32;;;;;;;16.31;63.21;95318.63;4963073;28;20189;-72
2022/10/01 01:12:27;;;;;;;10.27;7.10;;;;;;;16.17;63.72;95288.41;4962213;28;20179;-72
2022/10/01 01:15:19;;;;;;;7.93;6.00;;;;;;;15.94;64.87;95293.72;4881466;29;20195;-72
2022/10/01 01:17:45;;;;;;;7.55;6.18;;;;;;;16.07;64.88;95317.00;4878339;29;20218;-73
2022/10/01 01:20:31;;;;;;;8.93;6.40;;;;;;;16.11;64.62;95302.34;4875706;29;20234;-73
2022/10/01 01:23:34;;;;;;;8.70;6.32;;;;;;;15.82;65.49;95282.72;4873044;29;20191;-73
2022/10/01 01:26:24;;;;;;;10.13;6.40;;;;;;;15.97;65.23;95303.97;4860022;29;20199;-72
2022/10/01 01:28:54;;;;;;;6.90;6.28;;;;;;;15.99;64.94;95301.97;4860494;29;20361;-72
2022/10/01 01:31:32;;;;;;;12.13;6.20;;;;;;;15.91;65.15;95280.81;4855556;29;20239;-71
2022/10/01 01:34:02;;;;;;;11.50;6.80;;;;;;;15.83;65.68;95305.56;4853997;29;20195;-72
2022/10/01 01:36:36;;;;;;;8.13;6.57;;;;;;;15.99;64.95;95283.41;4849395;29;20279;-71
2022/10/01 01:39:09;;;;;;;7.75;6.47;;;;;;;15.94;65.02;95293.72;4873121;29;20206;-73
2022/10/01 01:41:39;;;;;;;8.35;6.13;;;;;;;16.00;65.12;95302.78;4860365;29;20203;-72
2022/10/01 01:44:09;;;;;;;10.07;6.30;;;;;;;16.02;64.51;95298.13;4860267;29;20216;-73
2022/10/01 01:46:40;;;;;;;7.97;6.15;;;;;;;15.82;65.27;95303.09;4860849;29;20270;-72
2022/10/01 01:49:07;;;;;;;9.63;5.95;;;;;;;15.95;65.08;95302.50;4862432;29;20287;-73
2022/10/01 01:51:42;;;;;;;9.85;5.93;;;;;;;15.86;65.33;95310.50;4885051;29;20228;-75
2022/10/01 01:54:08;;;;;;;8.43;6.55;;;;;;;16.01;64.94;95302.63;4929999;29;20334;-74
2022/10/01 01:56:34;;;;;;;8.73;6.93;;;;;;;16.00;64.81;95297.47;4927594;29;20226;-74
2022/10/01 01:59:02;;;;;;;8.93;6.80;;;;;;;15.99;65.71;95317.06;4935665;29;20264;-74
2022/10/01 02:01:39;;;;;;;8.60;6.57;;;;;;;15.85;65.71;95285.00;4936585;29;20193;-74
2022/10/01 02:04:24;;;;;;;10.70;6.90;;;;;;;15.65;66.23;95291.75;4983281;28;20203;-74
2022/10/01 02:07:15;;;;;;;9.65;6.85;;;;;;;15.64;66.83;95306.00;4967557;28;20192;-73
2022/10/01 02:09:46;;;;;;;9.00;6.50;;;;;;;15.52;67.64;95315.34;4962121;28;20220;-74
2022/10/01 02:12:32;;;;;;;7.15;6.05;;;;;;;15.59;67.30;95340.16;4963182;28;20216;-74
2022/10/01 02:15:24;;;;;;;10.32;6.45;;;;;;;15.58;67.44;95342.00;4950896;28;20188;-74
2022/10/01 02:18:11;;;;;;;8.43;6.68;;;;;;;15.74;66.47;95329.66;4965227;28;20189;-74
2022/10/01 02:20:49;;;;;;;9.65;6.80;;;;;;;15.67;66.57;95334.81;4960603;28;20214;-74
2022/10/01 02:23:21;;;;;;;9.43;6.72;;;;;;;15.82;66.26;95313.69;4960709;28;20189;-73
2022/10/01 02:25:56;;;;;;;10.25;6.47;;;;;;;15.25;68.23;95343.16;4966639;28;20256;-73
2022/10/01 02:28:23;;;;;;;10.43;7.40;;;;;;;15.56;67.56;95340.53;4952230;28;20219;-73
2022/10/01 02:30:53;;;;;;;10.05;7.55;;;;;;;15.47;67.62;95317.69;4972863;28;20228;-73
2022/10/01 02:33:26;;;;;;;7.82;6.93;;;;;;;15.50;68.00;95363.22;4963926;28;20189;-72
2022/10/01 02:35:53;;;;;;;8.13;6.38;;;;;;;15.61;67.37;95309.84;4985273;28;20278;-73
2022/10/01 02:38:23;;;;;;;8.05;6.68;;;;;;;15.67;66.46;95350.72;4961645;28;20255;-72
2022/10/01 02:40:52;;;;;;;7.00;6.30;;;;;;;15.77;66.51;95343.41;4971456;28;20195;-72
2022/10/01 02:43:32;;;;;;;8.13;6.07;;;;;;;15.86;65.86;95328.25;4962225;28;20188;-72
2022/10/01 02:46:17;;;;;;;7.40;6.60;;;;;;;15.93;65.92;95334.50;4973579;28;20207;-74
2022/10/01 02:48:42;;;;;;;8.35;6.50;;;;;;;16.04;64.95;95360.63;4971590;28;20188;-74
2022/10/01 02:51:45;;;;;;;6.93;6.00;;;;;;;16.08;65.16;95343.31;4965524;28;20188;-73
2022/10/01 02:54:38;;;;;;;8.30;6.22;;;;;;;15.95;65.30;95361.66;4892652;29;20198;-74
2022/10/01 02:57:22;;;;;;;9.63;6.78;;;;;;;16.06;65.28;95347.16;4909190;29;20281;-74
2022/10/01 02:59:53;;;;;;;6.72;6.13;;;;;;;15.91;65.92;95359.56;4891151;29;20194;-75
2022/10/01 03:02:19;;;;;;;9.50;6.38;;;;;;;15.92;66.02;95347.94;4899839;29;20198;-75
2022/10/01 03:04:47;;;;;;;9.18;6.32;;;;;;;15.98;66.11;95341.91;4910856;29;20660;-75
2022/10/01 03:07:13;;;;;;;8.43;5.80;;;;;;;16.02;66.02;95344.03;4894504;29;20198;-72
2022/10/01 03:09:38;;;;;;;9.90;6.35;;;;;;;16.16;65.22;95354.88;4896100;29;20195;-72
2022/10/01 03:12:05;;;;;;;8.45;6.50;;;;;;;16.28;64.76;95338.38;4899567;29;20195;-72
2022/10/01 03:14:31;;;;;;;8.25;6.05;;;;;;;16.07;64.98;95360.25;4900336;29;20313;-70
2022/10/01 03:16:56;;;;;;;8.63;6.53;;;;;;;16.22;64.25;95327.63;4899705;29;20277;-72
2022/10/01 03:19:22;;;;;;;8.40;5.78;;;;;;;15.99;65.15;95341.75;4915143;29;20237;-72
2022/10/01 03:21:47;;;;;;;9.75;6.57;;;;;;;15.96;65.73;95344.75;4892729;29;20217;-72
2022/10/01 03:24:13;;;;;;;7.50;6.35;;;;;;;15.98;65.68;95328.66;4915214;29;20214;-70
2022/10/01 03:26:38;;;;;;;9.55;6.57;;;;;;;16.04;65.28;95360.63;4893248;29;20213;-71
2022/10/01 03:29:05;;;;;;;10.35;6.70;;;;;;;16.14;64.80;95349.75;4913101;29;20233;-71
2022/10/01 03:31:30;;;;;;;7.53;6.53;;;;;;;15.94;65.28;95359.19;4940219;28;20262;-71
2022/10/01 03:33:59;;;;;;;7.95;6.38;;;;;;;15.96;65.46;95371.28;4971694;28;20192;-69
2022/10/01 03:36:25;;;;;;;8.90;6.18;;;;;;;15.86;65.84;95363.53;4967410;28;20208;-69
2022/10/01 03:38:51;;;;;;;6.40;5.28;;;;;;;15.74;66.22;95359.63;4971079;28;20241;-70
2022/10/01 03:41:17;;;;;;;7.60;6.00;;;;;;;15.73;66.30;95357.19;4972266;28;20195;-74
2022/10/01 03:43:42;;;;;;;7.85;6.15;;;;;;;15.73;66.00;95354.53;4972091;28;20274;-74
2022/10/01 03:46:07;;;;;;;11.25;6.40;;;;;;;15.65;66.21;95361.47;4970544;28;20229;-74
2022/10/01 03:48:33;;;;;;;9.02;5.63;;;;;;;15.85;65.60;95359.25;4971060;28;20191;-75
2022/10/01 03:50:58;;;;;;;9.57;6.65;;;;;;;15.67;66.93;95356.03;4972172;28;20415;-74
2022/10/01 03:53:26;;;;;;;7.70;6.18;;;;;;;15.59;67.59;95325.09;4972196;28;20278;-75
2022/10/01 03:55:52;;;;;;;7.38;6.72;;;;;;;15.27;68.74;95336.69;4971181;28;20278;-75
2022/10/01 03:58:17;;;;;;;9.07;6.53;;;;;;;15.36;68.16;95330.34;4967473;28;20191;-72
2022/10/01 04:00:46;;;;;;;7.05;6.30;;;;;;;15.43;67.69;95331.31;4974863;28;20184;-71
2022/10/01 04:03:12;;;;;;;6.95;6.18;;;;;;;15.48;67.46;95356.47;4967346;28;20204;-72
2022/10/01 04:05:38;;;;;;;7.15;6.15;;;;;;;15.69;65.70;95324.91;4963702;28;20195;-71
2022/10/01 04:08:04;;;;;;;8.68;6.00;;;;;;;15.51;65.61;95316.38;4966729;28;20188;-72
2022/10/01 04:10:30;;;;;;;9.90;5.68;;;;;;;15.61;65.65;95317.78;4971715;28;20198;-72
2022/10/01 04:12:55;;;;;;;10.40;6.63;;;;;;;15.50;66.44;95322.66;4977473;28;20180;-72
2022/10/01 04:15:21;;;;;;;8.05;6.32;;;;;;;15.32;66.72;95313.16;4967670;28;20184;-71
2022/10/01 04:17:47;;;;;;;12.50;6.60;;;;;;;15.28;67.03;95326.91;4964231;28;20176;-73
2022/10/01 04:20:13;;;;;;;7.47;6.20;;;;;;;15.53;65.79;95340.84;4964452;28;20188;-73
2022/10/01 04:22:40;;;;;;;8.02;6.40;;;;;;;15.68;64.98;95343.59;4981331;28;20207;-73
2022/10/01 04:25:10;;;;;;;7.00;6.18;;;;;;;15.63;64.92;95354.72;4964101;28;20204;-75
2022/10/01 04:27:36;;;;;;;10.07;6.40;;;;;;;15.76;63.67;95330.31;4966717;28;20191;-73
2022/10/01 04:30:03;;;;;;;8.88;5.65;;;;;;;15.50;64.57;95338.53;4963947;28;20188;-73
2022/10/01 04:32:28;;;;;;;10.52;7.10;;;;;;;15.65;64.28;95328.84;4970692;28;20207;-73
2022/10/01 04:34:54;;;;;;;11.88;6.60;;;;;;;15.71;64.28;95324.72;4977715;28;20188;-73
2022/10/01 04:37:20;;;;;;;12.43;6.90;;;;;;;15.70;64.69;95331.03;4980267;28;20187;-73
2022/10/01 04:39:46;;;;;;;12.25;6.82;;;;;;;15.83;63.70;95321.47;4964113;28;20184;-73
2022/10/01 04:42:12;;;;;;;9.88;6.40;;;;;;;15.63;64.52;95326.38;4979250;28;20327;-74
2022/10/01 04:44:38;;;;;;;9.98;6.38;;;;;;;15.72;64.32;95329.84;4971666;28;20200;-73
2022/10/01 04:47:04;;;;;;;10.50;6.70;;;;;;;15.91;63.69;95338.34;4962682;28;20319;-73
2022/10/01 04:49:31;;;;;;;11.60;6.90;;;;;;;15.75;63.81;95333.97;4964694;28;20217;-73
2022/10/01 04:51:57;;;;;;;11.77;6.50;;;;;;;15.69;64.06;95342.59;4962582;28;20214;-73
2022/10/01 04:54:22;;;;;;;11.00;6.60;;;;;;;15.74;63.84;95348.22;4965880;28;20267;-74
2022/10/01 04:56:48;;;;;;;9.18;6.88;;;;;;;15.98;63.37;95356.00;4963518;28;20247;-73
2022/10/01 04:59:13;;;;;;;7.82;6.43;;;;;;;15.97;63.11;95366.78;4963239;28;20188;-74
2022/10/01 05:01:40;;;;;;;8.10;7.07;;;;;;;16.02;63.84;95367.91;4960495;28;20184;-74
2022/10/01 05:04:07;;;;;;;8.23;7.32;;;;;;;16.10;62.60;95367.03;4963347;28;20291;-74
2022/10/01 05:06:33;;;;;;;12.50;6.57;;;;;;;16.01;63.09;95353.00;4960061;28;20234;-74
2022/10/01 05:08:58;;;;;;;11.13;6.75;;;;;;;16.07;63.01;95347.00;4964665;28;20184;-74
2022/10/01 05:11:23;;;;;;;7.82;6.38;;;;;;;16.08;63.35;95366.38;4967979;28;20203;-74
2022/10/01 05:13:49;;;;;;;7.47;6.47;;;;;;;15.98;63.68;95376.41;4965831;28;20192;-73
2022/10/01 05:16:14;;;;;;;9.85;6.57;;;;;;;16.00;63.80;95375.22;4963634;28;20244;-72
2022/10/01 05:18:40;;;;;;;11.07;6.97;;;;;;;15.82;64.58;95383.47;4971138;28;20184;-71
2022/10/01 05:21:06;;;;;;;9.05;6.57;;;;;;;15.99;64.03;95378.06;4970006;28;20188;-72
2022/10/01 05:23:32;;;;;;;10.70;6.68;;;;;;;15.96;64.43;95383.69;4961852;28;20196;-73
2022/10/01 05:25:59;;;;;;;8.32;6.95;;;;;;;16.25;63.62;95372.38;4968795;28;20212;-73
2022/10/01 05:28:26;;;;;;;9.32;6.82;;;;;;;16.34;63.14;95370.50;4961735;28;20192;-72
2022/10/01 05:30:52;;;;;;;8.88;7.55;;;;;;;16.62;62.19;95360.94;4969033;28;20185;-73
2022/10/01 05:33:18;;;;;;;7.43;6.50;;;;;;;16.43;62.57;95385.34;4961279;28;20200;-72
2022/10/01 05:35:43;;;;;;;11.07;7.50;;;;;;;16.43;62.74;95377.38;4970052;28;20192;-73
2022/10/01 05:38:09;;;;;;;10.93;7.03;;;;;;;16.55;63.04;95397.19;4967339;28;20196;-72
2022/10/01 05:40:35;;;;;;;11.85;7.18;;;;;;;16.62;62.71;95399.94;4960901;28;20188;-72
2022/10/01 05:43:03;;;;;;;8.95;6.72;;;;;;;16.66;62.69;95401.25;4961894;28;20197;-73
2022/10/01 05:45:30;;;;;;;8.52;6.82;;;;;;;16.60;63.46;95386.00;4968042;28;20218;-74
2022/10/01 05:48:00;;;;;;;9.07;7.07;;;;;;;16.54;63.33;95382.25;4977188;28;20225;-74
2022/10/01 05:50:30;;;;;;;8.75;6.88;;;;;;;16.58;63.39;95370.28;4966603;28;20193;-73
2022/10/01 05:52:56;;;;;;;6.88;6.18;;;;;;;16.62;63.12;95366.25;4983378;28;20184;-73
2022/10/01 05:55:23;;;;;;;9.27;7.43;;;;;;;16.67;63.04;95361.22;4980306;28;20192;-71
2022/10/01 05:58:00;;;;;;;10.15;6.93;;;;;;;16.74;62.80;95348.06;4966176;28;20272;-72
2022/10/01 06:00:29;;;;;;;7.50;6.75;;;;;;;16.37;63.90;95343.59;4965465;28;20187;-73
2022/10/01 06:02:58;;;;;;;9.43;7.22;;;;;;;16.51;63.95;95364.03;4975489;28;20188;-73
2022/10/01 06:05:25;;;;;;;13.00;7.90;;;;;;;16.56;64.21;95388.22;4965561;28;20254;-76
2022/10/01 06:07:52;;;;;;;8.82;7.93;;;;;;;16.37;65.34;95392.19;4963050;28;20192;-74
2022/10/01 06:10:18;;;;;;;10.88;7.97;;;;;;;16.58;64.93;95404.81;4964118;28;20250;-74
2022/10/01 06:12:44;;;;;;;11.13;8.35;;;;;;;16.79;63.68;95392.69;4964232;28;20208;-74
2022/10/01 06:15:11;;;;;;;12.05;8.95;;;;;;;16.91;64.09;95367.34;4966295;28;20239;-74
2022/10/01 06:17:43;;;;;;;11.40;8.48;;;;;;;16.94;64.20;95398.84;4962014;28;20189;-74
2022/10/01 06:20:15;;;;;;;9.93;7.47;;;;;;;16.72;64.90;95408.50;4962512;28;20272;-74
2022/10/01 06:22:42;;;;;;;8.70;7.65;;;;;;;16.88;64.66;95426.13;4960430;28;20277;-74
2022/10/01 06:25:09;;;;;;;12.73;7.65;;;;;;;17.06;64.20;95415.16;4970804;28;20199;-74
2022/10/01 06:27:35;;;;;;;8.40;7.65;;;;;;;17.24;63.19;95420.97;4970168;28;20188;-73
2022/10/01 06:30:01;;;;;;;12.98;8.18;;;;;;;16.93;64.14;95421.09;4968456;28;20184;-71
2022/10/01 06:32:26;;;;;;;12.32;9.15;;;;;;;16.39;64.97;95421.22;4967772;28;20192;-69
2022/10/01 06:34:52;;;;;;;13.25;8.63;;;;;;;16.48;65.28;95436.06;4965095;28;20193;-68
2022/10/01 06:37:17;;;;;;;10.27;8.05;;;;;;;16.63;64.45;95428.97;4970137;28;20193;-68
2022/10/01 06:39:43;;;;;;;9.95;8.07;;;;;;;16.89;63.72;95407.38;4972153;28;20184;-70
2022/10/01 06:42:09;;;;;;;9.75;8.73;;;;;;;16.78;63.91;95399.00;4958843;28;20226;-70
2022/10/01 06:44:34;;;;;;;10.30;8.48;;;;;;;16.80;63.72;95413.75;4962887;28;20204;-70
2022/10/01 06:47:00;;;;;;;10.82;8.85;;;;;;;17.12;62.71;95407.28;4969875;28;20665;-68
2022/10/01 06:49:25;;;;;;;11.38;8.35;;;;;;;16.78;64.05;95388.38;4966419;28;20196;-70
2022/10/01 06:54:35;;;;;;;10.30;8.55;;;;;;;17.27;61.76;95382.53;4966302;28;20259;-70
2022/10/01 06:57:00;;;;;;;10.68;8.10;;;;;;;17.26;61.49;95410.13;4971657;28;20274;-68
2022/10/01 06:59:25;;;;;;;9.70;8.73;;;;;;;17.52;61.21;95391.88;4960415;28;20214;-69
2022/10/01 07:01:52;;;;;;;10.82;8.45;;;;;;;17.55;61.37;95391.50;4979524;28;20197;-68
2022/10/01 07:04:21;;;;;;;12.32;8.02;;;;;;;17.59;61.21;95400.75;4962011;28;20208;-67
2022/10/01 07:06:46;;;;;;;11.35;7.80;;;;;;;17.65;60.31;95393.88;4963699;28;20181;-67
2022/10/01 07:09:12;;;;;;;8.57;7.05;;;;;;;17.52;60.90;95405.16;4981190;28;20192;-68
2022/10/01 07:11:40;;;;;;;11.77;7.72;;;;;;;17.81;59.84;95438.09;4959253;28;20219;-69
2022/10/01 07:14:09;;;;;;;10.30;7.53;;;;;;;18.15;57.85;95439.28;4959246;28;20192;-68
2022/10/01 07:16:37;;;;;;;15.05;7.63;;;;;;;18.25;57.41;95447.78;4972685;28;20189;-70
2022/10/01 07:19:02;;;;;;;11.18;6.90;;;;;;;18.36;56.87;95452.59;4968366;28;20292;-69
2022/10/01 07:21:28;;;;;;;9.07;6.60;;;;;;;18.65;55.88;95448.16;4966531;28;20279;-69
2022/10/01 07:23:53;;;;;;;8.70;6.50;;;;;;;18.83;55.96;95439.75;4967746;28;20271;-69
2022/10/01 07:26:18;;;;;;;8.93;6.35;;;;;;;19.09;55.09;95441.81;4969450;28;20271;-69
2022/10/01 07:28:45;;;;;;;11.98;6.05;;;;;;;19.11;54.31;95435.28;4972448;28;20188;-64
2022/10/01 07:31:11;;;;;;;46.13;9.60;;;;;;;19.27;54.08;95412.81;4968191;28;20235;-68
2022/10/01 07:33:38;;;;;;;9.75;5.43;;;;;;;19.29;53.35;95420.59;4991791;28;20184;-71
2022/10/01 07:36:05;;;;;;;10.48;5.95;;;;;;;19.70;52.36;95419.81;4982006;28;20190;-72
2022/10/01 07:38:35;;;;;;;5.22;4.65;;;;;;;19.87;51.70;95407.78;4965514;28;20176;-71
2022/10/01 07:41:02;;;;;;;7.70;5.57;;;;;;;19.99;50.78;95390.19;4964983;28;20445;-69
2022/10/01 07:43:28;;;;;;;7.88;5.57;;;;;;;20.04;51.59;95397.56;4968477;28;20283;-70
2022/10/01 07:45:56;;;;;;;6.63;5.28;;;;;;;20.20;50.38;95405.19;4963283;28;20266;-70
2022/10/01 07:48:23;;;;;;;10.15;5.18;;;;;;;20.07;49.87;95407.84;4965936;28;20294;-69
2022/10/01 07:50:49;;;;;;;5.88;5.13;;;;;;;20.30;49.46;95406.69;4964651;28;20199;-69
2022/10/01 07:53:15;;;;;;;7.95;4.72;;;;;;;20.13;49.51;95407.06;4982864;28;20237;-70
2022/10/01 07:55:40;;;;;;;11.02;4.68;;;;;;;20.10;49.24;95402.13;4965637;28;20191;-69
2022/10/01 07:58:06;;;;;;;6.75;4.70;;;;;;;20.01;49.56;95405.97;4973072;28;20183;-68
2022/10/01 08:00:32;;;;;;;6.18;5.20;;;;;;;19.88;49.29;95404.09;4973103;28;20204;-67
2022/10/01 08:02:58;;;;;;;7.97;5.53;;;;;;;19.87;49.28;95436.31;4959491;28;20216;-70
2022/10/01 08:05:27;;;;;;;6.88;4.93;;;;;;;19.81;49.68;95436.09;4972704;28;20213;-69
2022/10/01 08:07:58;;;;;;;6.45;4.60;;;;;;;19.87;49.17;95404.31;4984184;28;20307;-70
2022/10/01 08:10:23;;;;;;;5.30;4.80;;;;;;;19.85;49.91;95404.50;4962485;28;20191;-70
2022/10/01 08:12:49;;;;;;;7.88;4.45;;;;;;;19.88;50.77;95372.06;4970559;28;20183;-68
2022/10/01 08:15:16;;;;;;;7.68;4.85;;;;;;;19.83;50.70;95372.69;4948761;28;20181;-70
2022/10/01 08:17:42;;;;;;;8.48;5.22;;;;;;;19.85;50.17;95360.97;4971485;28;20191;-73
2022/10/01 08:20:10;;;;;;;9.13;5.00;;;;;;;19.70;51.17;95335.28;4973699;28;20207;-70
2022/10/01 08:22:36;;;;;;;6.40;4.90;;;;;;;19.82;51.76;95363.00;4969666;28;20207;-71
2022/10/01 08:25:01;;;;;;;6.22;5.10;;;;;;;19.81;50.51;95361.38;4971446;28;20226;-70
2022/10/01 08:27:27;;;;;;;7.80;5.70;;;;;;;19.78;51.34;95343.09;4971694;28;20188;-71
2022/10/01 08:29:54;;;;;;;7.80;5.20;;;;;;;19.73;51.01;95336.75;4972947;28;20203;-70
2022/10/01 08:32:20;;;;;;;8.05;5.40;;;;;;;19.65;52.18;95348.38;4972647;28;20282;-69
2022/10/01 08:34:46;;;;;;;9.52;6.55;;;;;;;19.78;51.65;95345.78;4966523;28;20270;-68
2022/10/01 08:37:13;;;;;;;19.88;6.93;;;;;;;19.79;51.63;95347.41;4972115;28;20195;-74
2022/10/01 08:39:38;;;;;;;31.70;7.60;;;;;;;19.76;51.96;95358.50;4970581;28;20184;-75
2022/10/01 08:42:46;;;;;;;9.88;5.60;;;;;;;19.75;52.20;95332.84;4970581;28;20601;-73
2022/10/01 08:45:19;;;;;;;9.55;5.60;;;;;;;19.88;51.94;95356.06;4976569;28;20207;-74
2022/10/01 08:47:57;;;;;;;9.77;5.80;;;;;;;19.80;52.43;95351.72;4971237;28;20220;-65
2022/10/01 08:50:44;;;;;;;10.10;5.82;;;;;;;19.88;51.33;95345.38;4955470;28;20199;-66
2022/10/01 08:53:23;;;;;;;6.78;5.65;;;;;;;19.66;52.09;95336.69;4965078;28;20201;-67
2022/10/01 08:55:50;;;;;;;6.72;5.95;;;;;;;19.63;52.87;95314.91;4968112;28;20185;-67
2022/10/01 08:58:24;;;;;;;10.90;6.45;;;;;;;19.58;52.69;95302.16;4968658;28;20247;-68
2022/10/01 09:00:51;;;;;;;7.57;5.70;;;;;;;19.49;53.03;95325.53;4969842;28;20185;-69
2022/10/01 09:03:17;;;;;;;8.77;5.63;;;;;;;19.37;54.21;95362.59;4971626;28;20183;-68
2022/10/01 09:06:02;;;;;;;9.95;6.40;;;;;;;19.44;53.27;95367.97;4971918;28;20294;-68
2022/10/01 09:08:43;;;;;;;7.25;6.00;;;;;;;19.44;54.83;95372.50;4966736;28;20248;-69
2022/10/01 09:11:33;;;;;;;13.75;6.45;;;;;;;19.30;55.16;95398.25;4958875;28;20185;-68
2022/10/01 09:14:25;;;;;;;6.93;5.95;;;;;;;19.28;54.78;95414.44;4963121;28;20282;-69
2022/10/01 09:17:03;;;;;;;8.73;5.90;;;;;;;19.20;54.31;95425.28;4960375;28;20193;-68
2022/10/01 09:20:10;;;;;;;8.88;6.32;;;;;;;19.10;54.92;95460.25;4960124;28;20184;-69
2022/10/01 09:22:47;;;;;;;7.97;6.25;;;;;;;19.06;55.29;95459.00;4955787;28;20199;-69
2022/10/01 09:25:18;;;;;;;8.27;6.30;;;;;;;19.09;56.40;95463.94;4958694;28;20209;-68
2022/10/01 09:27:45;;;;;;;7.40;5.97;;;;;;;19.11;56.54;95437.94;4964497;28;20243;-66
2022/10/01 09:30:20;;;;;;;8.48;5.93;;;;;;;19.06;57.56;95442.19;4942308;29;20284;-66
2022/10/01 09:32:54;;;;;;;10.98;8.75;;;;;;;18.98;57.41;95450.31;4961883;28;20179;-68
2022/10/01 09:35:29;;;;;;;10.73;6.90;;;;;;;18.95;58.66;95441.72;4960863;28;20185;-67
2022/10/01 09:38:18;;;;;;;7.95;7.07;;;;;;;19.03;59.24;95461.22;4958590;28;20189;-67
2022/10/01 09:40:46;;;;;;;11.68;6.55;;;;;;;19.02;59.44;95454.25;4963958;28;20208;-66
2022/10/01 09:43:13;;;;;;;11.68;7.65;;;;;;;18.97;58.96;95443.34;4960446;28;20211;-67
2022/10/01 09:45:38;;;;;;;13.63;7.75;;;;;;;18.97;58.89;95449.50;4970812;28;20295;-67
2022/10/01 09:48:15;;;;;;;8.30;7.20;;;;;;;19.10;57.76;95462.94;4945152;28;20271;-67
2022/10/01 09:50:53;;;;;;;11.32;8.13;;;;;;;19.21;57.73;95424.25;4964922;28;20188;-67
2022/10/01 09:53:25;;;;;;;11.60;9.23;;;;;;;19.27;58.69;95436.81;4958068;28;20192;-67
2022/10/01 09:55:57;;;;;;;12.35;8.07;;;;;;;19.45;57.45;95446.13;4946168;28;20200;-67
2022/10/01 09:58:26;;;;;;;12.80;8.13;;;;;;;19.29;57.09;95405.44;4965729;28;20585;-68
2022/10/01 10:00:53;;;;;;;8.88;7.13;;;;;;;19.28;57.70;95373.66;4967106;28;20243;-68
2022/10/01 10:03:25;;;;;;;9.68;6.70;;;;;;;19.30;57.67;95372.44;4962156;28;20187;-68
2022/10/01 10:05:51;;;;;;;9.73;7.30;;;;;;;19.36;56.30;95371.63;4964789;28;20211;-68
2022/10/01 10:08:30;;;;;;;7.97;6.78;;;;;;;19.50;55.90;95379.69;4966565;28;20208;-67
2022/10/01 10:11:00;;;;;;;9.95;6.22;;;;;;;19.49;56.49;95388.72;4962393;28;20235;-67
2022/10/01 10:13:38;;;;;;;13.80;8.77;;;;;;;19.40;56.82;95380.03;4972510;28;20184;-67
2022/10/01 10:16:44;;;;;;;13.52;8.25;;;;;;;19.44;57.64;95375.16;4964139;28;20207;-68
2022/10/01 10:19:29;;;;;;;13.38;7.80;;;;;;;19.34;60.30;95404.84;4973875;28;20194;-69
2022/10/01 10:22:11;;;;;;;10.05;7.30;;;;;;;19.44;61.64;95423.16;4965785;28;20180;-69
2022/10/01 10:24:38;;;;;;;15.02;7.97;;;;;;;19.56;60.91;95365.56;4964725;28;20200;-69
2022/10/01 10:27:19;;;;;;;11.90;7.15;;;;;;;19.64;61.07;95373.38;4946069;28;20258;-69
2022/10/01 10:29:44;;;;;;;9.70;7.57;;;;;;;19.52;60.28;95409.66;4967389;28;20279;-67
2022/10/01 10:32:27;;;;;;;8.45;7.28;;;;;;;19.36;60.52;95389.47;4971148;28;20185;-67
2022/10/01 10:34:57;;;;;;;10.18;7.55;;;;;;;19.06;62.95;95383.53;4964186;28;20188;-67
2022/10/01 10:37:29;;;;;;;9.95;6.82;;;;;;;19.17;61.51;95391.00;4974464;28;20184;-67
2022/10/01 10:39:57;;;;;;;7.78;7.03;;;;;;;19.13;61.75;95417.22;4964037;28;20188;-68
2022/10/01 10:42:24;;;;;;;8.57;7.68;;;;;;;19.05;63.58;95403.22;4967753;28;20252;-67
2022/10/01 10:44:53;;;;;;;11.40;7.45;;;;;;;19.11;65.52;95429.09;4974399;28;20223;-67
2022/10/01 10:47:20;;;;;;;8.80;7.90;;;;;;;19.02;65.84;95427.59;4964805;28;20340;-68
2022/10/01 10:50:04;;;;;;;9.18;8.32;;;;;;;19.15;65.77;95401.84;4979678;28;20188;-67
2022/10/01 10:52:36;;;;;;;11.63;7.60;;;;;;;19.18;66.14;95381.97;4969213;28;20180;-67
2022/10/01 10:55:20;;;;;;;11.65;8.27;;;;;;;19.32;64.67;95381.03;4968754;28;20181;-68
2022/10/01 10:57:45;;;;;;;8.93;7.68;;;;;;;19.15;65.95;95374.38;4963701;28;20188;-67
2022/10/01 11:00:18;;;;;;;9.90;7.72;;;;;;;19.21;65.95;95359.44;4967156;28;20185;-68
2022/10/01 11:03:04;;;;;;;8.68;7.75;;;;;;;19.16;66.76;95370.69;5002593;28;20289;-68
2022/10/01 11:05:31;;;;;;;10.13;8.23;;;;;;;19.35;65.08;95363.81;4961500;28;20209;-67
2022/10/01 11:08:03;;;;;;;9.52;7.97;;;;;;;19.21;66.79;95386.91;4946792;28;20188;-67
2022/10/01 11:10:47;;;;;;;9.63;7.90;;;;;;;19.32;66.24;95359.69;4970757;28;20196;-67
2022/10/01 11:13:48;;;;;;;8.38;6.93;;;;;;;19.35;65.13;95359.34;4960518;28;20283;-67
2022/10/01 11:16:29;;;;;;;8.77;6.18;;;;;;;19.56;63.53;95329.03;4962246;28;20200;-67
2022/10/01 11:19:19;;;;;;;10.60;7.10;;;;;;;19.91;63.60;95314.78;4965355;28;20193;-68
2022/10/01 11:21:52;;;;;;;9.23;7.35;;;;;;;19.98;63.31;95299.63;4961505;28;20240;-68
2022/10/01 11:24:45;;;;;;;8.55;6.95;;;;;;;19.64;62.89;95280.03;4963839;28;20364;-68
2022/10/01 11:27:25;;;;;;;8.95;6.38;;;;;;;19.53;64.85;95268.09;4976914;28;20192;-69
2022/10/01 11:30:23;;;;;;;7.60;6.55;;;;;;;19.34;65.32;95275.00;4967800;28;20181;-69
2022/10/01 11:33:09;;;;;;;11.10;6.55;;;;;;;19.21;65.01;95288.28;4959743;28;20219;-69
2022/10/01 11:35:46;;;;;;;8.35;6.53;;;;;;;19.52;64.61;95277.13;4969867;28;20179;-68
2022/10/01 11:38:14;;;;;;;12.65;7.57;;;;;;;19.70;64.62;95284.59;4963323;28;20255;-69
2022/10/01 11:41:08;;;;;;;11.77;6.88;;;;;;;19.68;66.22;95273.31;4955759;28;20212;-68
2022/10/01 11:43:43;;;;;;;10.88;7.45;;;;;;;19.63;68.53;95265.03;4955046;28;20197;-67
2022/10/01 11:46:37;;;;;;;9.30;7.60;;;;;;;20.20;68.21;95255.69;4980167;28;20258;-67
2022/10/01 11:49:02;;;;;;;9.15;7.65;;;;;;;20.33;67.06;95251.38;4966812;28;20222;-67
2022/10/01 11:51:37;;;;;;;8.45;7.13;;;;;;;20.61;65.79;95233.31;4967580;28;20184;-67
2022/10/01 11:54:08;;;;;;;9.13;7.55;;;;;;;21.07;66.79;95226.97;4982620;28;20582;-68